Time;durP1;ratioP1;P1;durP2;ratioP2;P2;SDS_P1;SDS_P2;PMS_P1;PMS_P2;Temp;Humidity;BMP_temperature;BMP_pressure;BME280_temperature;BME280_humidity;BME280_pressure;Samples;Min_cycle;Max_cycle;Signal;HPM_P1;HPM_P2
2022/07/28 00:00:19;;;;;;;2.37;1.00;;;16.00;87.60;;;;;;4151057;28;20223;-79
2022/07/28 00:02:21;;;;;;;1.67;0.77;;;15.90;85.70;;;;;;4163188;28;20522;-79
2022/07/28 00:04:23;;;;;;;0.97;0.87;;;15.90;86.90;;;;;;4161027;28;20238;-79
2022/07/28 00:06:25;;;;;;;3.07;0.87;;;15.90;88.40;;;;;;4163260;28;20219;-79
2022/07/28 00:08:27;;;;;;;2.07;0.80;;;15.90;88.70;;;;;;4161707;28;20634;-79
2022/07/28 00:10:31;;;;;;;3.00;1.00;;;15.80;90.00;;;;;;4161201;28;20287;-79
2022/07/28 00:12:33;;;;;;;1.03;0.70;;;15.80;90.20;;;;;;4163059;28;20231;-79
2022/07/28 00:14:36;;;;;;;1.43;0.70;;;15.80;90.70;;;;;;4163968;28;20246;-78
2022/07/28 00:16:38;;;;;;;1.77;0.90;;;15.80;91.20;;;;;;4163459;28;20277;-79
2022/07/28 00:18:40;;;;;;;2.30;0.87;;;15.70;91.00;;;;;;4166557;28;20835;-78
2022/07/28 00:20:42;;;;;;;1.87;0.90;;;15.70;91.50;;;;;;4172040;22;20330;-75
2022/07/28 00:22:44;;;;;;;3.00;1.13;;;15.70;92.80;;;;;;4161024;28;20289;-74
2022/07/28 00:24:46;;;;;;;1.40;0.70;;;15.70;92.00;;;;;;4160927;28;20203;-75
2022/07/28 00:26:48;;;;;;;1.73;0.97;;;15.60;92.60;;;;;;4159805;28;20222;-74
2022/07/28 00:28:50;;;;;;;5.53;1.10;;;15.60;93.40;;;;;;4162925;28;20210;-74
2022/07/28 00:30:54;;;;;;;2.47;1.17;;;15.60;93.60;;;;;;4167938;28;20737;-74
2022/07/28 00:32:55;;;;;;;3.07;0.93;;;15.60;94.10;;;;;;4168281;28;20202;-75
2022/07/28 00:34:57;;;;;;;0.80;0.73;;;15.60;93.40;;;;;;4167388;28;20229;-74
2022/07/28 00:36:59;;;;;;;2.03;0.80;;;15.50;93.80;;;;;;4165703;28;20293;-74
2022/07/28 00:39:01;;;;;;;2.63;1.00;;;15.50;93.90;;;;;;4167490;28;20213;-75
2022/07/28 00:41:12;;;;;;;2.63;0.80;;;15.50;93.80;;;;;;4168057;28;20596;-75
2022/07/28 00:43:15;;;;;;;1.60;0.80;;;15.50;94.00;;;;;;4170220;28;20237;-74
2022/07/28 00:45:17;;;;;;;2.80;0.97;;;15.40;94.40;;;;;;4169315;28;20228;-74
2022/07/28 00:47:20;;;;;;;2.90;0.90;;;15.40;94.10;;;;;;4168797;28;20289;-74
2022/07/28 00:49:22;;;;;;;1.80;1.00;;;15.40;94.20;;;;;;4153123;28;20265;-74
2022/07/28 00:51:25;;;;;;;1.20;0.80;;;15.40;94.20;;;;;;4136071;28;20213;-74
2022/07/28 00:53:27;;;;;;;2.20;1.00;;;15.40;94.60;;;;;;4166163;28;20676;-75
2022/07/28 00:55:29;;;;;;;3.10;1.03;;;15.30;94.70;;;;;;4165968;28;20282;-75
2022/07/28 00:57:33;;;;;;;4.80;1.20;;;15.30;95.00;;;;;;4153178;28;20649;-75
2022/07/28 00:59:35;;;;;;;1.93;0.80;;;15.30;94.90;;;;;;4166055;28;20222;-77
2022/07/28 01:01:37;;;;;;;1.63;1.00;;;15.20;95.10;;;;;;4161039;28;20207;-74
2022/07/28 01:03:44;;;;;;;1.00;0.77;;;15.20;96.00;;;;;;4165592;28;20222;-74
2022/07/28 01:05:52;;;;;;;1.87;0.87;;;15.20;96.70;;;;;;4167785;28;21116;-74
2022/07/28 01:08:03;;;;;;;2.00;0.80;;;15.20;97.70;;;;;;4148258;28;20215;-73
2022/07/28 01:10:09;;;;;;;2.77;1.03;;;15.10;97.40;;;;;;4171561;28;20227;-74
2022/07/28 01:12:21;;;;;;;1.37;0.77;;;15.10;97.50;;;;;;4172189;28;20218;-75
2022/07/28 01:14:29;;;;;;;2.90;0.90;;;15.10;98.80;;;;;;4169383;28;20587;-76
2022/07/28 01:16:31;;;;;;;1.50;0.70;;;15.10;98.30;;;;;;4173441;28;20566;-74
2022/07/28 01:18:40;;;;;;;2.10;1.03;;;15.00;98.90;;;;;;4169318;28;20240;-74
2022/07/28 01:20:47;;;;;;;3.40;1.07;;;15.00;98.90;;;;;;4154457;28;20245;-74
2022/07/28 01:23:01;;;;;;;1.30;0.80;;;15.00;99.90;;;;;;4172250;28;20217;-74
2022/07/28 01:25:16;;;;;;;3.53;1.10;;;15.00;99.90;;;;;;4163567;28;20676;-74
2022/07/28 01:27:30;;;;;;;2.23;1.07;;;15.00;99.90;;;;;;4169080;28;20230;-74
2022/07/28 01:29:56;;;;;;;2.13;0.90;;;14.90;99.90;;;;;;4150060;28;20235;-74
2022/07/28 01:32:04;;;;;;;1.43;1.00;;;14.90;99.90;;;;;;4163588;28;20714;-74
2022/07/28 01:34:09;;;;;;;1.90;1.00;;;14.90;99.90;;;;;;4171511;28;20203;-74
2022/07/28 01:36:14;;;;;;;1.60;1.17;;;14.80;99.90;;;;;;4162666;28;20289;-74
2022/07/28 01:38:18;;;;;;;2.80;1.30;;;14.80;99.90;;;;;;4166831;28;20203;-74
2022/07/28 01:40:25;;;;;;;2.17;1.10;;;14.80;99.90;;;;;;4161090;28;20253;-74
2022/07/28 01:42:31;;;;;;;1.17;1.00;;;14.80;99.90;;;;;;4171929;28;20326;-76
2022/07/28 01:44:38;;;;;;;2.23;1.03;;;14.70;99.90;;;;;;4172808;28;20601;-75
2022/07/28 01:46:41;;;;;;;2.67;1.13;;;14.70;99.90;;;;;;4173789;28;20234;-75
2022/07/28 01:48:47;;;;;;;1.87;1.07;;;14.70;99.90;;;;;;4171133;28;20210;-75
2022/07/28 01:50:50;;;;;;;3.23;1.10;;;14.70;99.90;;;;;;4157493;28;20320;-74
2022/07/28 01:52:54;;;;;;;2.13;1.17;;;14.70;99.90;;;;;;4170174;28;20210;-75
2022/07/28 01:54:58;;;;;;;2.53;0.90;;;14.60;99.90;;;;;;4173618;28;20206;-75
2022/07/28 01:57:01;;;;;;;1.93;1.10;;;14.60;99.90;;;;;;4172230;28;20225;-74
2022/07/28 01:59:08;;;;;;;2.10;1.00;;;14.60;99.90;;;;;;4154782;28;20222;-74
2022/07/28 02:01:11;;;;;;;1.97;1.10;;;14.60;99.90;;;;;;4169943;28;20206;-75
2022/07/28 02:03:14;;;;;;;2.13;1.00;;;14.50;99.90;;;;;;4169476;28;20257;-74
2022/07/28 02:05:21;;;;;;;2.17;1.00;;;14.50;99.90;;;;;;4176525;28;20697;-75
2022/07/28 02:07:24;;;;;;;1.83;0.90;;;14.50;99.90;;;;;;4172857;28;20230;-75
2022/07/28 02:09:28;;;;;;;5.13;1.43;;;14.50;99.90;;;;;;4167094;28;20723;-74
2022/07/28 02:11:40;;;;;;;1.57;1.00;;;14.50;99.90;;;;;;4169131;28;20217;-75
2022/07/28 02:13:43;;;;;;;3.47;1.13;;;14.50;99.90;;;;;;4174681;28;20225;-75
2022/07/28 02:15:46;;;;;;;5.67;1.30;;;14.40;99.90;;;;;;4152436;28;20774;-74
2022/07/28 02:17:51;;;;;;;2.37;1.00;;;14.40;99.90;;;;;;4168521;28;20205;-75
2022/07/28 02:19:54;;;;;;;2.33;1.10;;;14.40;99.90;;;;;;4171449;28;20323;-74
2022/07/28 02:21:57;;;;;;;2.17;1.07;;;14.40;99.90;;;;;;4175462;28;20603;-75
2022/07/28 02:24:00;;;;;;;2.03;1.10;;;14.40;99.90;;;;;;4174835;28;20210;-74
2022/07/28 02:26:07;;;;;;;3.50;1.17;;;14.40;99.90;;;;;;4173008;28;20720;-74
2022/07/28 02:28:10;;;;;;;1.73;1.30;;;14.40;99.90;;;;;;4171004;28;20280;-74
2022/07/28 02:30:17;;;;;;;1.37;0.90;;;14.30;99.90;;;;;;4169075;28;20308;-75
2022/07/28 02:32:23;;;;;;;1.77;1.00;;;14.30;99.90;;;;;;4152069;28;20306;-75
2022/07/28 02:34:27;;;;;;;1.87;1.13;;;14.30;99.90;;;;;;4168025;28;20667;-75
2022/07/28 02:36:33;;;;;;;1.97;1.03;;;14.20;99.90;;;;;;4167216;28;20574;-75
2022/07/28 02:38:40;;;;;;;3.10;1.10;;;14.20;99.90;;;;;;4169193;28;20210;-74
2022/07/28 02:40:44;;;;;;;3.17;1.10;;;14.20;99.90;;;;;;4149173;28;20231;-75
2022/07/28 02:42:49;;;;;;;2.23;1.20;;;14.20;99.90;;;;;;4167305;28;20217;-75
2022/07/28 02:44:57;;;;;;;2.73;1.17;;;14.10;99.90;;;;;;4155173;28;20209;-75
2022/07/28 02:47:00;;;;;;;2.97;1.23;;;14.10;99.90;;;;;;4176141;28;20227;-75
2022/07/28 02:49:07;;;;;;;1.13;1.00;;;14.10;99.90;;;;;;4170809;28;20239;-75
2022/07/28 02:51:11;;;;;;;2.60;1.10;;;14.10;99.90;;;;;;4167645;28;20263;-74
2022/07/28 02:53:15;;;;;;;1.67;0.97;;;14.00;99.90;;;;;;4149783;28;21002;-74
2022/07/28 02:55:18;;;;;;;2.77;1.20;;;14.00;99.90;;;;;;4171290;28;20213;-74
2022/07/28 02:57:23;;;;;;;2.13;1.40;;;14.00;99.90;;;;;;4172865;28;20201;-74
2022/07/28 02:59:26;;;;;;;2.67;1.30;;;14.00;99.90;;;;;;4152739;28;20239;-75
2022/07/28 03:01:28;;;;;;;2.50;1.17;;;14.00;99.90;;;;;;4170892;28;20340;-75
2022/07/28 03:03:33;;;;;;;3.03;1.20;;;14.00;99.90;;;;;;4172014;28;20205;-74
2022/07/28 03:05:36;;;;;;;2.53;1.30;;;13.90;99.90;;;;;;4170938;28;20311;-74
2022/07/28 03:07:38;;;;;;;1.53;1.10;;;13.90;99.90;;;;;;4153476;28;20232;-75
2022/07/28 03:09:42;;;;;;;2.17;1.33;;;13.90;99.90;;;;;;4170139;28;20308;-74
2022/07/28 03:11:53;;;;;;;2.47;1.30;;;13.90;99.90;;;;;;4170441;28;20241;-75
2022/07/28 03:13:55;;;;;;;2.27;1.23;;;13.90;99.90;;;;;;4172240;28;20243;-75
2022/07/28 03:15:57;;;;;;;3.87;1.50;;;13.90;99.90;;;;;;4169214;28;20234;-74
2022/07/28 03:17:59;;;;;;;2.40;1.20;;;13.90;99.90;;;;;;4172107;28;20232;-74
2022/07/28 03:20:01;;;;;;;2.70;1.30;;;13.80;99.90;;;;;;4151531;28;20270;-74
2022/07/28 03:22:04;;;;;;;4.10;1.20;;;13.80;99.90;;;;;;4170522;28;20210;-74
2022/07/28 03:24:07;;;;;;;2.20;1.23;;;13.80;99.90;;;;;;4166298;28;20252;-74
2022/07/28 03:26:16;;;;;;;2.27;1.00;;;13.80;99.90;;;;;;4152109;28;20200;-74
2022/07/28 03:28:21;;;;;;;4.30;1.10;;;13.80;99.90;;;;;;4150440;28;20211;-74
2022/07/28 03:30:27;;;;;;;2.20;1.30;;;13.80;99.90;;;;;;4141363;28;20273;-75
2022/07/28 03:32:31;;;;;;;3.00;1.07;;;13.80;99.90;;;;;;4170652;28;20210;-75
2022/07/28 03:34:33;;;;;;;3.87;1.50;;;13.80;99.90;;;;;;4168989;28;20630;-75
2022/07/28 03:36:40;;;;;;;2.27;1.40;;;13.80;99.90;;;;;;4167765;28;20205;-75
2022/07/28 03:38:48;;;;;;;2.20;1.13;;;13.80;99.90;;;;;;4171191;28;20307;-75
2022/07/28 03:40:52;;;;;;;1.60;1.07;;;13.70;99.90;;;;;;4169715;28;20236;-75
2022/07/28 03:42:56;;;;;;;2.63;1.17;;;13.80;99.90;;;;;;4172070;28;20219;-75
2022/07/28 03:45:00;;;;;;;2.73;1.67;;;13.70;99.90;;;;;;4165019;28;20292;-75
2022/07/28 03:47:02;;;;;;;3.43;1.17;;;13.70;99.90;;;;;;4153401;28;20253;-75
2022/07/28 03:49:08;;;;;;;2.83;1.50;;;13.70;99.90;;;;;;4170159;28;20278;-75
2022/07/28 03:51:10;;;;;;;2.57;1.33;;;13.70;99.90;;;;;;4171113;28;20280;-75
2022/07/28 03:53:19;;;;;;;2.40;1.20;;;13.70;99.90;;;;;;4167518;28;20212;-75
2022/07/28 03:55:22;;;;;;;2.80;1.40;;;13.70;99.90;;;;;;4171349;28;20209;-75
2022/07/28 03:57:24;;;;;;;2.77;1.40;;;13.60;99.90;;;;;;4168302;28;20255;-75
2022/07/28 03:59:26;;;;;;;4.33;1.40;;;13.60;99.90;;;;;;4167380;28;20256;-75
2022/07/28 04:01:33;;;;;;;2.90;1.13;;;13.60;99.90;;;;;;4168005;28;20240;-75
2022/07/28 04:03:35;;;;;;;4.77;1.50;;;13.60;99.90;;;;;;4169223;28;20667;-75
2022/07/28 04:05:36;;;;;;;3.80;1.60;;;13.60;99.90;;;;;;4182153;28;20649;-75
2022/07/28 04:07:39;;;;;;;2.37;1.30;;;13.60;99.90;;;;;;4167713;28;20262;-75
2022/07/28 04:09:41;;;;;;;7.37;1.50;;;13.60;99.90;;;;;;4169717;28;20791;-75
2022/07/28 04:11:43;;;;;;;2.27;1.30;;;13.60;99.90;;;;;;4169083;28;20229;-75
2022/07/28 04:13:45;;;;;;;2.80;1.40;;;13.60;99.90;;;;;;4168321;28;21270;-75
2022/07/28 04:15:47;;;;;;;1.90;1.30;;;13.70;99.90;;;;;;4152177;28;20290;-75
2022/07/28 04:17:52;;;;;;;1.97;1.27;;;13.70;99.90;;;;;;4169478;28;20304;-75
2022/07/28 04:19:54;;;;;;;2.50;1.40;;;13.70;99.90;;;;;;4161120;28;20243;-75
2022/07/28 04:21:56;;;;;;;2.43;1.43;;;13.70;99.90;;;;;;4169914;28;20628;-75
2022/07/28 04:23:58;;;;;;;3.37;1.30;;;13.70;99.90;;;;;;4168065;28;20657;-75
2022/07/28 04:26:00;;;;;;;5.87;1.60;;;13.80;99.90;;;;;;4150310;28;20238;-75
2022/07/28 04:28:02;;;;;;;2.37;1.40;;;13.80;99.90;;;;;;4167928;28;20336;-75
2022/07/28 04:30:05;;;;;;;3.17;1.40;;;13.80;99.90;;;;;;4169718;28;20238;-75
2022/07/28 04:32:07;;;;;;;3.80;1.40;;;13.80;99.90;;;;;;4166228;28;20214;-75
2022/07/28 04:34:10;;;;;;;2.07;1.43;;;13.80;99.90;;;;;;4170020;28;20233;-75
2022/07/28 04:36:12;;;;;;;2.27;1.53;;;13.90;99.90;;;;;;4167308;28;20271;-75
2022/07/28 04:38:16;;;;;;;3.97;1.40;;;13.90;99.90;;;;;;4172113;28;20209;-75
2022/07/28 04:40:18;;;;;;;2.53;1.30;;;13.90;99.90;;;;;;4150370;28;20806;-75
2022/07/28 04:42:20;;;;;;;3.40;1.53;;;14.00;99.90;;;;;;4167973;28;20625;-75
2022/07/28 04:44:22;;;;;;;2.07;1.33;;;13.90;99.90;;;;;;4165390;28;20228;-75
2022/07/28 04:46:24;;;;;;;3.67;1.60;;;13.90;99.90;;;;;;4150144;28;20636;-75
2022/07/28 04:48:26;;;;;;;3.70;1.60;;;13.90;99.90;;;;;;4166613;28;20227;-77
2022/07/28 04:50:29;;;;;;;3.17;1.40;;;13.90;99.90;;;;;;4182789;28;20255;-76
2022/07/28 04:52:32;;;;;;;2.90;1.47;;;14.00;99.90;;;;;;4167644;28;20263;-76
2022/07/28 04:54:34;;;;;;;2.20;1.40;;;14.00;99.90;;;;;;4166022;28;20248;-75
2022/07/28 04:56:36;;;;;;;4.60;1.53;;;14.00;99.90;;;;;;4167250;28;20245;-75
2022/07/28 04:58:38;;;;;;;4.00;1.37;;;14.00;99.90;;;;;;4165917;28;20207;-76
2022/07/28 05:00:41;;;;;;;2.20;1.40;;;14.00;99.90;;;;;;4164211;28;20624;-76
2022/07/28 05:02:45;;;;;;;2.53;1.43;;;14.10;99.90;;;;;;4165932;28;20211;-76
2022/07/28 05:04:47;;;;;;;2.63;1.20;;;14.10;99.90;;;;;;4167765;28;20220;-77
2022/07/28 05:06:50;;;;;;;5.10;1.80;;;14.10;99.90;;;;;;4154353;28;20745;-77
2022/07/28 05:08:52;;;;;;;2.20;1.43;;;14.20;99.90;;;;;;4172676;28;20288;-79
2022/07/28 05:10:55;;;;;;;3.50;1.50;;;14.20;99.90;;;;;;4158490;28;20265;-82
2022/07/28 05:12:57;;;;;;;4.50;1.43;;;14.20;99.90;;;;;;4175437;28;20205;-80
2022/07/28 05:14:59;;;;;;;2.87;1.77;;;14.30;99.90;;;;;;4175528;28;20667;-77
2022/07/28 05:17:01;;;;;;;3.73;1.60;;;14.30;99.90;;;;;;4174454;28;20680;-77
2022/07/28 05:19:04;;;;;;;4.17;1.87;;;14.30;99.90;;;;;;4182424;28;20296;-78
2022/07/28 05:21:05;;;;;;;7.10;1.67;;;14.30;99.90;;;;;;4143868;28;20220;-78
2022/07/28 05:23:10;;;;;;;4.30;1.60;;;14.40;99.90;;;;;;4169676;28;20207;-78
2022/07/28 05:25:17;;;;;;;2.17;1.50;;;14.40;99.90;;;;;;4147943;28;20204;-78
2022/07/28 05:27:19;;;;;;;3.17;1.60;;;14.40;99.90;;;;;;4167436;28;20219;-78
2022/07/28 05:29:20;;;;;;;3.60;1.60;;;14.50;99.90;;;;;;4185822;28;20237;-78
2022/07/28 05:31:22;;;;;;;3.73;1.60;;;14.50;99.90;;;;;;4155199;28;20218;-78
2022/07/28 05:33:24;;;;;;;4.47;1.80;;;14.60;99.90;;;;;;4157909;28;20722;-78
2022/07/28 05:35:26;;;;;;;3.10;1.67;;;14.60;99.90;;;;;;4170590;28;20631;-78
2022/07/28 05:37:29;;;;;;;4.37;2.07;;;14.70;99.90;;;;;;4170059;28;20290;-78
2022/07/28 05:39:32;;;;;;;2.20;1.43;;;14.70;99.90;;;;;;4172345;28;20237;-78
2022/07/28 05:41:34;;;;;;;2.90;1.53;;;14.70;99.90;;;;;;4168060;28;20586;-78
2022/07/28 05:43:37;;;;;;;3.30;1.50;;;14.80;99.90;;;;;;4158393;28;20745;-78
2022/07/28 05:45:39;;;;;;;3.03;1.40;;;14.90;99.90;;;;;;4192700;28;20214;-78
2022/07/28 05:47:42;;;;;;;2.80;1.40;;;14.90;99.90;;;;;;4174012;28;20226;-78
2022/07/28 05:49:44;;;;;;;3.60;1.77;;;15.00;99.90;;;;;;4160054;28;20227;-78
2022/07/28 05:51:46;;;;;;;2.43;1.50;;;15.00;99.90;;;;;;4145236;28;20208;-78
2022/07/28 05:53:48;;;;;;;3.20;1.60;;;15.10;99.90;;;;;;4173599;28;20211;-78
2022/07/28 05:55:51;;;;;;;2.60;1.40;;;15.10;99.90;;;;;;4173801;28;20297;-78
2022/07/28 05:57:53;;;;;;;2.47;1.30;;;15.20;99.90;;;;;;4174729;28;20206;-78
2022/07/28 05:59:56;;;;;;;2.93;1.40;;;15.20;99.90;;;;;;4156724;28;20232;-78
2022/07/28 06:01:59;;;;;;;2.43;1.40;;;15.30;99.90;;;;;;4172827;28;20214;-78
2022/07/28 06:04:01;;;;;;;4.13;1.40;;;15.30;99.90;;;;;;4157161;28;20219;-78
2022/07/28 06:06:04;;;;;;;2.80;1.30;;;15.40;99.90;;;;;;4170305;28;20238;-78
2022/07/28 06:08:06;;;;;;;2.13;1.23;;;15.50;99.90;;;;;;4175007;28;20253;-78
2022/07/28 06:10:09;;;;;;;3.67;1.47;;;15.50;99.90;;;;;;4178130;28;20645;-78
2022/07/28 06:12:12;;;;;;;4.40;1.40;;;15.50;99.90;;;;;;4176658;28;20736;-78
2022/07/28 06:14:14;;;;;;;3.10;1.20;;;15.60;99.90;;;;;;4175137;28;20202;-78
2022/07/28 06:16:17;;;;;;;1.37;1.00;;;15.70;99.90;;;;;;4157690;28;20231;-78
2022/07/28 06:18:20;;;;;;;1.57;1.10;;;15.60;99.90;;;;;;4177819;28;20204;-78
2022/07/28 06:20:24;;;;;;;2.50;1.40;;;15.70;99.90;;;;;;4180390;28;20245;-78
2022/07/28 06:22:26;;;;;;;4.20;1.20;;;15.70;99.90;;;;;;4179787;28;20241;-77
2022/07/28 06:24:28;;;;;;;1.70;1.20;;;15.70;99.90;;;;;;4159954;28;20212;-79
2022/07/28 06:26:30;;;;;;;2.70;1.20;;;15.70;99.90;;;;;;4170062;28;20214;-79
2022/07/28 06:28:33;;;;;;;2.50;1.30;;;15.80;99.90;;;;;;4172242;28;20717;-79
2022/07/28 06:30:35;;;;;;;2.00;1.20;;;15.80;99.90;;;;;;4179139;28;20237;-78
2022/07/28 06:32:37;;;;;;;2.20;1.17;;;15.80;99.90;;;;;;4162963;28;20208;-77
2022/07/28 06:34:39;;;;;;;1.93;1.20;;;15.80;99.90;;;;;;4155027;28;20225;-78
2022/07/28 06:36:41;;;;;;;3.10;1.47;;;15.80;99.90;;;;;;4174262;28;20234;-79
2022/07/28 06:38:43;;;;;;;2.30;1.23;;;15.80;99.90;;;;;;4174567;28;20298;-78
2022/07/28 06:40:44;;;;;;;1.87;1.17;;;15.80;99.90;;;;;;4175936;28;20760;-79
2022/07/28 06:42:48;;;;;;;2.57;1.40;;;15.80;99.90;;;;;;4175451;28;20249;-77
2022/07/28 06:44:52;;;;;;;2.50;1.10;;;15.80;99.90;;;;;;4174943;28;20206;-78
2022/07/28 06:46:54;;;;;;;3.30;1.30;;;15.80;99.90;;;;;;4175246;28;20202;-78
2022/07/28 06:48:55;;;;;;;3.20;1.17;;;15.80;99.90;;;;;;4152437;28;20231;-76
2022/07/28 06:50:58;;;;;;;4.03;1.53;;;15.80;99.90;;;;;;4170689;28;20623;-78
2022/07/28 06:53:00;;;;;;;2.03;1.10;;;15.80;99.90;;;;;;4169689;28;20214;-77
2022/07/28 06:55:02;;;;;;;3.90;1.23;;;15.80;99.90;;;;;;4168684;28;20210;-77
2022/07/28 06:57:05;;;;;;;4.43;1.50;;;15.80;99.90;;;;;;4172644;28;20289;-77
2022/07/28 06:59:07;;;;;;;2.77;1.20;;;15.80;99.90;;;;;;4171991;28;20205;-78
2022/07/28 07:01:11;;;;;;;2.20;1.20;;;15.80;99.90;;;;;;4170741;28;20206;-78
2022/07/28 07:03:13;;;;;;;2.90;1.50;;;15.80;99.90;;;;;;4168836;28;20215;-77
2022/07/28 07:05:15;;;;;;;3.47;1.40;;;15.80;99.90;;;;;;4169961;28;20286;-77
2022/07/28 07:07:17;;;;;;;1.47;1.10;;;15.80;99.90;;;;;;4165548;28;20235;-78
2022/07/28 07:09:18;;;;;;;2.07;1.20;;;15.80;99.90;;;;;;4169246;28;20666;-78
2022/07/28 07:11:20;;;;;;;1.83;1.10;;;15.80;99.90;;;;;;4169200;28;20291;-77
2022/07/28 07:13:22;;;;;;;3.80;1.60;;;15.80;99.90;;;;;;4154008;28;20252;-78
2022/07/28 07:15:24;;;;;;;3.43;1.43;;;15.80;99.90;;;;;;4169935;28;20313;-77
2022/07/28 07:17:28;;;;;;;2.07;1.20;;;15.90;99.90;;;;;;4169251;28;20226;-77
2022/07/28 07:19:29;;;;;;;1.47;0.93;;;15.90;99.90;;;;;;4169719;28;20305;-78
2022/07/28 07:21:31;;;;;;;3.40;1.23;;;15.90;99.90;;;;;;4171304;28;20213;-77
2022/07/28 07:23:34;;;;;;;1.10;0.90;;;15.90;99.90;;;;;;4182096;28;20680;-77
2022/07/28 07:25:36;;;;;;;2.47;1.07;;;16.00;99.90;;;;;;4172368;28;20242;-78
2022/07/28 07:27:38;;;;;;;3.27;1.30;;;16.00;99.90;;;;;;4171537;28;20231;-77
2022/07/28 07:29:40;;;;;;;3.53;1.13;;;16.00;99.90;;;;;;4171930;28;20218;-77
2022/07/28 07:31:42;;;;;;;2.37;1.13;;;16.10;99.90;;;;;;4168344;28;20233;-77
2022/07/28 07:33:46;;;;;;;1.53;0.83;;;16.10;99.90;;;;;;4172887;28;20221;-77
2022/07/28 07:35:47;;;;;;;4.23;1.20;;;16.10;99.90;;;;;;4169295;28;20199;-77
2022/07/28 07:37:49;;;;;;;2.10;1.00;;;16.20;99.90;;;;;;4155945;28;20207;-77
2022/07/28 07:39:51;;;;;;;1.67;0.90;;;16.20;99.90;;;;;;4169506;28;20317;-77
2022/07/28 07:41:53;;;;;;;1.40;1.10;;;16.20;99.90;;;;;;4168764;28;20207;-77
2022/07/28 07:43:55;;;;;;;1.50;0.97;;;16.30;99.90;;;;;;4164914;28;20634;-77
2022/07/28 07:45:57;;;;;;;1.50;0.90;;;16.40;99.90;;;;;;4163057;28;20240;-78
2022/07/28 07:48:00;;;;;;;2.67;1.10;;;16.40;99.90;;;;;;4162066;28;20251;-77
2022/07/28 07:50:03;;;;;;;1.27;1.03;;;16.50;99.90;;;;;;4152424;28;20648;-77
2022/07/28 07:52:06;;;;;;;2.67;1.20;;;16.60;99.90;;;;;;4166873;28;20258;-77
2022/07/28 07:54:08;;;;;;;1.27;1.00;;;16.70;99.90;;;;;;4168994;28;20290;-77
2022/07/28 07:56:10;;;;;;;1.50;0.80;;;16.70;99.90;;;;;;4169735;28;20243;-77
2022/07/28 07:58:11;;;;;;;2.33;1.07;;;16.80;99.90;;;;;;4167898;28;20203;-77
2022/07/28 08:00:14;;;;;;;3.53;1.33;;;16.90;99.90;;;;;;4169683;28;20260;-77
2022/07/28 08:02:16;;;;;;;1.37;1.03;;;17.00;99.90;;;;;;4170633;28;20220;-76
2022/07/28 08:04:18;;;;;;;1.77;1.03;;;17.10;99.90;;;;;;4168744;28;20217;-77
2022/07/28 08:06:21;;;;;;;2.80;1.10;;;17.20;99.90;;;;;;4172269;28;20456;-77
2022/07/28 08:08:23;;;;;;;3.23;1.07;;;17.30;99.90;;;;;;4168531;28;20231;-76
2022/07/28 08:10:25;;;;;;;2.37;1.30;;;17.30;99.90;;;;;;4170720;28;20811;-77
2022/07/28 08:12:27;;;;;;;1.97;1.03;;;17.40;99.90;;;;;;4175603;28;20200;-76
2022/07/28 08:14:29;;;;;;;1.40;1.00;;;17.50;99.90;;;;;;4152768;28;20211;-76
2022/07/28 08:16:31;;;;;;;2.13;1.20;;;17.60;99.90;;;;;;4173444;28;20309;-76
2022/07/28 08:18:33;;;;;;;2.10;1.33;;;17.60;99.90;;;;;;4155642;28;20371;-77
2022/07/28 08:20:34;;;;;;;2.53;1.07;;;17.70;99.90;;;;;;4165425;28;20261;-76
2022/07/28 08:22:48;;;;;;;1.90;0.97;;;17.70;99.90;;;;;;4170431;28;20244;-76
2022/07/28 08:24:50;;;;;;;2.03;1.20;;;17.80;99.90;;;;;;4168239;28;20289;-76
2022/07/28 08:26:52;;;;;;;3.40;1.27;;;17.90;99.90;;;;;;4153253;28;20294;-77
2022/07/28 08:28:54;;;;;;;2.83;1.30;;;18.00;99.90;;;;;;4156163;28;20309;-78
2022/07/28 08:30:56;;;;;;;2.67;1.03;;;18.00;99.90;;;;;;4168379;28;20225;-77
2022/07/28 08:32:58;;;;;;;2.70;1.07;;;18.10;99.90;;;;;;4173121;28;20727;-78
2022/07/28 08:34:59;;;;;;;2.47;1.27;;;18.20;99.60;;;;;;4169697;28;20635;-78
2022/07/28 08:37:02;;;;;;;1.40;1.30;;;18.30;93.90;;;;;;4167298;28;20647;-78
2022/07/28 08:39:06;;;;;;;3.83;1.23;;;18.40;97.70;;;;;;4164223;28;20727;-78
2022/07/28 08:41:13;;;;;;;1.80;1.10;;;18.40;97.20;;;;;;4168630;28;20207;-78
2022/07/28 08:43:25;;;;;;;3.03;1.30;;;18.50;96.90;;;;;;4166970;28;20703;-78
2022/07/28 08:45:30;;;;;;;2.30;1.20;;;18.60;95.40;;;;;;4167660;28;20211;-78
2022/07/28 08:47:34;;;;;;;1.57;0.90;;;18.60;96.10;;;;;;4167102;28;20294;-78
2022/07/28 08:49:38;;;;;;;2.23;1.10;;;18.70;94.10;;;;;;4173794;28;20664;-79
2022/07/28 08:51:42;;;;;;;2.53;0.93;;;18.80;94.70;;;;;;4170027;28;20699;-79
2022/07/28 08:53:44;;;;;;;3.57;1.00;;;18.90;92.10;;;;;;4154100;28;20251;-78
2022/07/28 08:55:48;;;;;;;1.57;1.00;;;18.90;92.50;;;;;;4152565;28;20234;-78
2022/07/28 08:57:53;;;;;;;3.97;1.13;;;19.00;90.80;;;;;;4174239;28;20199;-79
2022/07/28 08:59:55;;;;;;;1.80;0.90;;;19.10;93.10;;;;;;4174493;28;20233;-78
2022/07/28 09:01:57;;;;;;;2.80;1.20;;;19.20;91.20;;;;;;4165328;28;20238;-80
2022/07/28 09:04:00;;;;;;;2.40;1.20;;;19.30;86.50;;;;;;4150232;28;20258;-80
2022/07/28 09:06:02;;;;;;;1.73;1.17;;;19.30;86.50;;;;;;4149609;28;20303;-79
2022/07/28 09:08:05;;;;;;;1.53;0.90;;;19.40;81.50;;;;;;4170386;28;20652;-78
2022/07/28 09:10:10;;;;;;;1.37;0.87;;;19.50;83.30;;;;;;4156804;28;20728;-78
2022/07/28 09:12:13;;;;;;;2.63;1.10;;;19.50;87.70;;;;;;4167555;28;20246;-78
2022/07/28 09:14:15;;;;;;;1.93;1.23;;;19.60;85.40;;;;;;4165670;28;20690;-78
2022/07/28 09:16:17;;;;;;;1.53;1.10;;;19.70;82.70;;;;;;4171372;28;20218;-78
2022/07/28 09:18:19;;;;;;;3.00;1.23;;;19.80;81.90;;;;;;4171919;28;20258;-78
2022/07/28 09:20:21;;;;;;;3.33;1.10;;;19.80;72.30;;;;;;4171089;28;20232;-78
2022/07/28 09:22:23;;;;;;;1.93;1.27;;;19.90;67.90;;;;;;4168872;28;20204;-78
2022/07/28 09:24:35;;;;;;;1.20;1.00;;;20.00;74.20;;;;;;4163124;28;20212;-77
2022/07/28 09:26:37;;;;;;;2.33;1.13;;;20.10;72.50;;;;;;4165331;28;20217;-77
2022/07/28 09:28:53;;;;;;;2.27;1.13;;;20.20;68.30;;;;;;4175445;28;20221;-77
2022/07/28 09:30:56;;;;;;;1.17;1.00;;;20.20;62.80;;;;;;4173836;28;20698;-78
2022/07/28 09:33:16;;;;;;;1.93;1.17;;;20.30;59.50;;;;;;4169074;28;20212;-77
2022/07/28 09:35:19;;;;;;;2.33;1.07;;;20.30;59.70;;;;;;4167900;28;20585;-78
2022/07/28 09:37:24;;;;;;;2.17;1.03;;;20.40;63.00;;;;;;4168022;28;20213;-78
2022/07/28 09:39:31;;;;;;;4.20;1.13;;;20.50;60.40;;;;;;4168193;28;20219;-78
2022/07/28 09:41:47;;;;;;;2.63;0.90;;;20.50;62.20;;;;;;4163759;28;20209;-77
2022/07/28 09:43:51;;;;;;;1.97;1.00;;;20.60;59.70;;;;;;4171411;28;20288;-76
2022/07/28 09:46:04;;;;;;;2.07;0.90;;;20.60;55.90;;;;;;4143649;28;20242;-77
2022/07/28 09:48:11;;;;;;;2.63;1.00;;;20.70;57.50;;;;;;4139986;28;20863;-78
2022/07/28 09:50:20;;;;;;;2.53;0.97;;;20.80;55.50;;;;;;4168272;28;20243;-81
2022/07/28 09:52:30;;;;;;;2.20;0.90;;;20.80;51.70;;;;;;4172684;28;20226;-79
2022/07/28 09:54:31;;;;;;;2.43;0.90;;;20.90;52.90;;;;;;4173777;28;20288;-80
2022/07/28 09:56:34;;;;;;;2.03;1.00;;;21.00;56.30;;;;;;4174236;28;20247;-80
2022/07/28 09:58:37;;;;;;;1.90;1.00;;;21.00;55.70;;;;;;4169985;28;20731;-78
2022/07/28 10:00:40;;;;;;;1.40;0.93;;;21.10;54.40;;;;;;4153646;28;20322;-78
2022/07/28 10:02:49;;;;;;;3.07;1.00;;;21.20;55.50;;;;;;4167114;28;20234;-78
2022/07/28 10:04:53;;;;;;;1.23;0.90;;;21.30;53.80;;;;;;4170637;28;20208;-78
2022/07/28 10:07:01;;;;;;;2.17;0.93;;;21.30;53.70;;;;;;4170743;28;20212;-78
2022/07/28 10:09:06;;;;;;;3.10;1.00;;;21.40;53.20;;;;;;4168003;28;20514;-78
2022/07/28 10:11:08;;;;;;;2.53;1.27;;;21.50;54.60;;;;;;4170693;28;20247;-77
2022/07/28 10:13:10;;;;;;;3.07;1.03;;;21.60;53.00;;;;;;4152676;28;20728;-78
2022/07/28 10:17:33;;;;;;;2.13;1.10;;;21.80;52.20;;;;;;4166758;28;20210;-78
2022/07/28 10:19:36;;;;;;;1.20;0.90;;;21.90;51.70;;;;;;4150917;28;20234;-77
2022/07/28 10:21:42;;;;;;;1.70;1.00;;;22.00;51.60;;;;;;4169759;28;20312;-77
2022/07/28 10:23:48;;;;;;;2.43;1.00;;;22.10;51.70;;;;;;4170350;28;20253;-79
2022/07/28 10:25:52;;;;;;;2.90;0.80;;;22.10;49.30;;;;;;4167629;28;21865;-78
2022/07/28 10:27:55;;;;;;;1.60;0.90;;;22.20;49.30;;;;;;4167340;28;21107;-78
2022/07/28 10:29:59;;;;;;;1.53;1.00;;;22.30;50.00;;;;;;4171022;28;20226;-78
2022/07/28 10:32:05;;;;;;;1.17;0.80;;;22.40;48.30;;;;;;4169051;28;20248;-78
2022/07/28 10:34:14;;;;;;;2.43;0.90;;;22.50;48.20;;;;;;4170513;28;20231;-79
2022/07/28 10:36:19;;;;;;;1.83;0.77;;;22.50;48.00;;;;;;4154722;28;20209;-78
2022/07/28 10:38:21;;;;;;;2.10;1.00;;;22.60;47.70;;;;;;4174092;28;20238;-79
2022/07/28 10:40:28;;;;;;;1.60;0.90;;;22.70;48.40;;;;;;4170142;28;20820;-78
2022/07/28 10:42:30;;;;;;;1.40;0.90;;;22.80;47.70;;;;;;4175109;28;20210;-78
2022/07/28 10:44:32;;;;;;;1.37;0.83;;;22.90;46.80;;;;;;4171141;28;20281;-77
2022/07/28 10:46:35;;;;;;;2.20;0.97;;;23.00;46.80;;;;;;4155538;28;20302;-77